createdAt,value
2018-09-19T00:05:12.818Z,15.71
2018-09-19T00:10:30.595Z,15.48
2018-09-19T00:15:48.618Z,15.36
2018-09-19T00:21:06.346Z,15.38
2018-09-19T00:26:24.087Z,15.05
2018-09-19T00:31:42.318Z,15.21
2018-09-19T00:37:00.039Z,15.11
2018-09-19T00:42:18.666Z,14.93
2018-09-19T00:47:36.408Z,14.62
2018-09-19T00:52:54.621Z,14.75
2018-09-19T00:58:12.429Z,15.16
2018-09-19T01:03:30.150Z,14.87
2018-09-19T01:08:47.923Z,14.63
2018-09-19T01:14:05.824Z,14.52
2018-09-19T01:19:23.723Z,14.60
2018-09-19T01:24:41.436Z,14.58
2018-09-19T01:29:59.183Z,14.70
2018-09-19T01:35:16.948Z,14.71
2018-09-19T01:40:34.717Z,14.25
2018-09-19T01:45:52.465Z,13.98
2018-09-19T01:51:10.156Z,13.78
2018-09-19T01:56:27.895Z,14.24
2018-09-19T02:01:45.869Z,13.70
2018-09-19T02:07:04.319Z,13.69
2018-09-19T02:12:22.075Z,13.79
2018-09-19T02:17:40.576Z,13.82
2018-09-19T02:22:58.338Z,13.62
2018-09-19T02:28:16.173Z,13.55
2018-09-19T02:33:33.919Z,13.87
2018-09-19T02:38:52.894Z,14.02
2018-09-19T02:44:10.634Z,13.80
2018-09-19T02:49:28.481Z,13.83
2018-09-19T02:54:46.272Z,13.32
2018-09-19T03:00:04.831Z,13.23
2018-09-19T03:05:22.552Z,13.25
2018-09-19T03:10:40.296Z,13.14
2018-09-19T03:15:58.021Z,13.53
2018-09-19T03:21:15.750Z,13.02
2018-09-19T03:26:33.451Z,13.17
2018-09-19T03:31:51.224Z,13.01
2018-09-19T03:37:09.079Z,13.08
2018-09-19T03:42:26.823Z,13.28
2018-09-19T03:47:44.846Z,13.20
2018-09-19T03:53:02.598Z,13.30
2018-09-19T03:58:20.426Z,13.13
2018-09-19T04:03:38.893Z,12.97
2018-09-19T04:08:56.641Z,12.84
2018-09-19T04:14:14.398Z,13.07
2018-09-19T04:19:32.702Z,12.94
2018-09-19T04:24:50.444Z,13.43
2018-09-19T04:30:08.582Z,13.53
2018-09-19T04:35:26.304Z,13.63
2018-09-19T04:40:44.675Z,13.52
2018-09-19T04:46:03.066Z,13.16
2018-09-19T04:51:20.961Z,13.01
2018-09-19T04:56:38.668Z,13.46
2018-09-19T05:01:56.435Z,13.32
2018-09-19T05:07:14.257Z,13.46
2018-09-19T05:12:32.210Z,13.31
2018-09-19T05:17:50.652Z,12.90
2018-09-19T05:23:08.442Z,12.96
2018-09-19T05:28:26.158Z,13.53
2018-09-19T05:33:44.131Z,13.45
2018-09-19T05:39:02.703Z,13.63
2018-09-19T05:44:20.502Z,13.33
2018-09-19T05:49:38.257Z,15.62
2018-09-19T05:54:57.864Z,15.65
2018-09-19T06:00:15.663Z,16.20
2018-09-19T06:05:33.755Z,16.28
2018-09-19T06:10:51.478Z,16.41
2018-09-19T06:16:09.200Z,16.26
2018-09-19T06:21:27.040Z,16.47
2018-09-19T06:26:44.738Z,16.87
2018-09-19T06:32:02.838Z,17.15
2018-09-19T06:37:20.590Z,17.31
2018-09-19T06:42:38.371Z,17.76
2018-09-19T06:47:56.565Z,18.20
2018-09-19T06:53:14.960Z,18.44
2018-09-19T06:58:32.811Z,18.70
2018-09-19T07:03:50.559Z,19.13
2018-09-19T07:09:09.009Z,19.67
2018-09-19T07:14:26.889Z,20.64
2018-09-19T07:19:45.773Z,22.19
2018-09-19T07:25:03.599Z,23.07
2018-09-19T07:30:21.334Z,23.91
2018-09-19T07:35:39.665Z,23.15
2018-09-19T07:40:57.513Z,23.81
2018-09-19T07:46:15.628Z,26.40
2018-09-19T07:51:33.477Z,27.43
2018-09-19T07:56:51.735Z,26.26
2018-09-19T08:02:09.465Z,26.27
2018-09-19T08:07:27.180Z,27.79
2018-09-19T08:12:44.987Z,28.24
2018-09-19T08:18:03.574Z,26.62
2018-09-19T08:23:21.329Z,26.17
2018-09-19T08:28:39.077Z,26.95
2018-09-19T08:39:10.612Z,27.76
2018-09-19T08:44:29.166Z,25.26
2018-09-19T08:49:48.571Z,26.33
2018-09-19T08:55:07.845Z,25.69
2018-09-19T09:00:26.672Z,23.49
2018-09-19T09:05:45.211Z,24.43
2018-09-19T09:11:03.828Z,25.02
2018-09-19T09:16:22.403Z,25.32
2018-09-19T09:21:41.141Z,25.66
2018-09-19T09:26:59.819Z,25.66
2018-09-19T09:37:36.710Z,25.47
2018-09-19T09:42:55.809Z,25.47
2018-09-19T09:48:14.386Z,25.54
2018-09-19T09:58:52.226Z,26.07
2018-09-19T10:04:11.222Z,26.23
2018-09-19T10:09:29.813Z,26.24
2018-09-19T10:14:48.779Z,26.36
2018-09-19T10:20:09.122Z,27.18
2018-09-19T10:25:27.818Z,27.18
2018-09-19T10:30:46.413Z,27.25
2018-09-19T10:36:08.477Z,27.25
2018-09-19T10:41:27.654Z,26.06
2018-09-19T10:46:47.583Z,27.56
2018-09-19T10:52:06.150Z,28.62
2018-09-19T10:57:24.763Z,30.84
2018-09-19T11:02:44.012Z,30.49
2018-09-19T11:08:02.625Z,28.66
2018-09-19T11:13:22.135Z,28.05
2018-09-19T11:18:40.654Z,29.47
2018-09-19T11:23:59.152Z,32.92
2018-09-19T11:29:17.695Z,31.07
2018-09-19T11:34:36.864Z,30.23
2018-09-19T11:39:55.699Z,30.45
2018-09-19T11:45:14.295Z,30.12
2018-09-19T11:50:33.406Z,32.45
2018-09-19T11:55:52.036Z,30.75
2018-09-19T12:01:11.332Z,31.75
2018-09-19T12:06:29.835Z,30.36
2018-09-19T12:11:48.585Z,30.93
2018-09-19T12:17:07.751Z,31.10
2018-09-19T12:22:26.360Z,32.13
2018-09-19T12:27:45.055Z,30.40
2018-09-19T12:33:03.850Z,31.52
2018-09-19T12:38:22.388Z,29.05
2018-09-19T12:43:40.970Z,29.19
2018-09-19T12:48:59.605Z,30.05
2018-09-19T12:54:18.082Z,29.95
2018-09-19T12:59:36.632Z,30.21
2018-09-19T13:04:56.518Z,30.16
2018-09-19T13:10:15.014Z,29.42
2018-09-19T13:15:33.631Z,28.51
2018-09-19T13:20:52.136Z,29.97
2018-09-19T13:26:10.703Z,29.25
2018-09-19T13:31:29.207Z,29.59
2018-09-19T13:36:47.840Z,29.81
2018-09-19T13:42:06.682Z,30.60
2018-09-19T13:47:25.236Z,29.80
2018-09-19T13:52:43.919Z,30.50
2018-09-19T13:58:02.594Z,28.99
2018-09-19T14:03:21.109Z,29.40
2018-09-19T14:08:40.390Z,30.43
2018-09-19T14:13:58.946Z,30.42
2018-09-19T14:19:17.837Z,29.71
2018-09-19T14:24:36.960Z,29.12
2018-09-19T14:29:55.543Z,29.54
2018-09-19T14:35:14.087Z,29.69
2018-09-19T14:40:32.587Z,29.56
2018-09-19T14:45:51.134Z,29.33
2018-09-19T14:51:09.645Z,29.56
2018-09-19T14:56:28.159Z,28.60
2018-09-19T15:01:46.802Z,27.94
2018-09-19T15:07:05.424Z,29.00
2018-09-19T15:12:24.066Z,28.96
2018-09-19T15:17:42.621Z,28.85
2018-09-19T15:23:01.221Z,28.94
2018-09-19T15:28:20.021Z,28.92
2018-09-19T15:33:38.558Z,28.67
2018-09-19T15:38:57.118Z,28.77
2018-09-19T15:44:15.701Z,28.72
2018-09-19T15:49:34.222Z,28.18
2018-09-19T15:54:52.959Z,28.09
2018-09-19T16:00:11.738Z,27.56
2018-09-19T16:05:30.291Z,27.38
2018-09-19T16:10:48.886Z,27.38
2018-09-19T16:16:08.100Z,27.05
2018-09-19T16:21:26.645Z,26.99
2018-09-19T16:26:45.181Z,26.81
2018-09-19T16:32:03.779Z,26.50
2018-09-19T16:37:22.470Z,26.34
2018-09-19T16:42:41.041Z,26.12
2018-09-19T16:47:59.555Z,25.78
2018-09-19T16:53:18.504Z,25.71
2018-09-19T16:58:37.112Z,25.54
2018-09-19T17:03:55.623Z,25.35
2018-09-19T17:09:14.180Z,25.02
2018-09-19T17:14:33.364Z,24.98
2018-09-19T17:19:52.619Z,24.85
2018-09-19T17:25:12.476Z,24.72
2018-09-19T17:30:31.156Z,24.42
2018-09-19T17:35:49.829Z,24.29
2018-09-19T17:41:08.432Z,24.18
2018-09-19T17:46:27.139Z,23.93
2018-09-19T17:51:47.092Z,23.83
2018-09-19T17:57:05.689Z,23.66
2018-09-19T18:02:24.268Z,23.51
2018-09-19T18:07:43.021Z,23.28
2018-09-19T18:13:02.387Z,23.14
2018-09-19T18:18:21.439Z,22.79
2018-09-19T18:23:40.662Z,22.58
2018-09-19T18:28:59.331Z,21.96
2018-09-19T18:34:17.863Z,22.27
2018-09-19T18:39:36.360Z,22.34
2018-09-19T18:44:54.988Z,22.25
2018-09-19T18:50:13.559Z,22.00
2018-09-19T18:55:32.506Z,21.98
2018-09-19T19:00:52.031Z,21.77
2018-09-19T19:06:11.214Z,21.66
2018-09-19T19:11:29.739Z,21.48
2018-09-19T19:16:48.280Z,21.60
2018-09-19T19:22:07.557Z,21.53
2018-09-19T19:27:26.180Z,21.39
2018-09-19T19:32:44.739Z,21.19
2018-09-19T19:38:03.377Z,21.13
2018-09-19T19:43:21.991Z,20.91
2018-09-19T19:48:40.826Z,20.95
2018-09-19T19:53:59.998Z,20.92
2018-09-19T19:59:19.586Z,20.62
2018-09-19T20:04:38.059Z,19.86
2018-09-19T20:09:56.638Z,20.29
2018-09-19T20:15:15.145Z,19.93
2018-09-19T20:20:33.743Z,19.09
2018-09-19T20:25:52.229Z,19.44
2018-09-19T20:31:11.953Z,19.65
2018-09-19T20:36:31.460Z,18.87
2018-09-19T20:41:50.127Z,18.28
2018-09-19T20:47:08.895Z,18.52
2018-09-19T20:52:27.613Z,18.30
2018-09-19T20:57:46.218Z,18.47
2018-09-19T21:03:04.710Z,18.29
2018-09-19T21:08:23.347Z,18.06
2018-09-19T21:13:41.928Z,17.46
2018-09-19T21:19:00.535Z,17.75
2018-09-19T21:24:20.037Z,17.87
2018-09-19T21:29:38.687Z,17.04
2018-09-19T21:34:57.308Z,17.14
2018-09-19T21:40:15.976Z,16.84
2018-09-19T21:45:34.984Z,17.73
2018-09-19T21:50:54.251Z,18.23
2018-09-19T21:56:12.767Z,18.30
2018-09-19T22:01:36.543Z,18.19
2018-09-19T22:06:55.162Z,17.93
2018-09-19T22:12:13.741Z,17.91
2018-09-19T22:17:32.320Z,18.09
2018-09-19T22:22:51.077Z,18.50
2018-09-19T22:28:09.608Z,18.83
2018-09-19T22:33:28.320Z,18.50
2018-09-19T22:38:47.103Z,18.10
2018-09-19T22:44:05.996Z,18.46
2018-09-19T22:49:25.199Z,17.67
2018-09-19T22:54:43.779Z,18.12
2018-09-19T23:00:03.090Z,17.61
2018-09-19T23:05:21.607Z,17.66
2018-09-19T23:10:40.755Z,17.91
2018-09-19T23:16:00.194Z,17.75
2018-09-19T23:21:19.547Z,18.04
2018-09-19T23:26:38.132Z,18.21
2018-09-19T23:31:56.699Z,18.32
2018-09-19T23:37:15.387Z,18.33
2018-09-19T23:42:34.008Z,18.17
2018-09-19T23:47:53.215Z,18.16
2018-09-19T23:53:11.800Z,18.26
2018-09-19T23:58:30.352Z,18.47
